Sao Simao, Brazil
Current Conditions -  °F | °C
As of 3:00 AM on Sunday 23 Nov 2014 (Local Time) from SBSR Reporting Station
Clear Clear  
Wind Chill: 72°   Ceiling: Unl
Heat Index: 72°   Visibility: 6mi
Dew Point: 66°   Wind: 1mph
Humidity: 83%   Direction: 10°N
Pressure: 29.91"   Gusts: NA
Location:  18.99°S, 50.54°W
Report Text: SBSR 230500Z 01001KT CAVOK 22/19 Q1013
Loading
Personal Weather Stations






























Interactive Weather Map New forecast layout! Learn more

10-Day Weather Forecast

Advertisements
Track Severe Weather on mobile